Time;durP1;ratioP1;P1;durP2;ratioP2;P2;SDS_P1;SDS_P2;PMS_P1;PMS_P2;Temp;Humidity;BMP_temperature;BMP_pressure;BME280_temperature;BME280_humidity;BME280_pressure;Samples;Min_cycle;Max_cycle;Signal;HPM_P1;HPM_P2
2022/01/14 00:01:50;;;;;;;11.40;8.82;;;;;;;17.33;38.09;103778.69;5054971;28;20028;-69
2022/01/14 00:04:16;;;;;;;12.35;9.45;;;;;;;17.37;38.21;103790.81;5054719;28;20399;-69
2022/01/14 00:06:42;;;;;;;13.70;10.93;;;;;;;17.42;38.18;103788.03;5054948;28;20021;-70
2022/01/14 00:09:11;;;;;;;14.13;10.90;;;;;;;17.43;37.87;103797.97;5054704;28;20025;-71
2022/01/14 00:11:45;;;;;;;12.80;10.27;;;;;;;17.52;37.75;103785.19;5054690;28;20439;-70
2022/01/14 00:14:22;;;;;;;15.73;11.80;;;;;;;17.47;37.82;103788.81;5054574;28;20043;-72
2022/01/14 00:16:49;;;;;;;13.05;11.13;;;;;;;17.48;37.73;103790.47;5054492;28;20033;-70
2022/01/14 00:19:16;;;;;;;17.27;11.32;;;;;;;17.46;37.71;103784.41;5036568;28;20024;-70
2022/01/14 00:21:43;;;;;;;16.58;12.00;;;;;;;17.44;37.62;103791.31;5054459;28;20113;-70
2022/01/14 00:24:22;;;;;;;14.27;11.80;;;;;;;17.41;37.85;103791.91;5036508;28;20108;-70
2022/01/14 00:32:44;;;;;;;14.68;11.27;;;;;;;17.52;37.54;103796.25;5054376;28;20545;-69
2022/01/14 00:35:10;;;;;;;18.95;11.60;;;;;;;17.47;37.56;103793.53;5054388;28;20029;-70
2022/01/14 00:37:35;;;;;;;13.32;10.52;;;;;;;17.37;37.87;103802.69;5054074;28;20036;-68
2022/01/14 00:40:01;;;;;;;14.88;11.15;;;;;;;17.39;37.72;103802.44;5054128;28;20075;-68
2022/01/14 00:42:26;;;;;;;16.13;11.57;;;;;;;17.38;37.86;103792.44;5053339;28;20040;-69
2022/01/14 00:44:52;;;;;;;15.90;10.82;;;;;;;17.39;37.88;103792.19;5035752;28;20112;-68
2022/01/14 00:47:18;;;;;;;15.02;11.25;;;;;;;17.35;37.91;103795.81;5053890;28;20028;-68
2022/01/14 00:49:43;;;;;;;13.13;10.48;;;;;;;17.32;37.79;103791.69;5053934;28;20064;-68
2022/01/14 00:52:09;;;;;;;11.93;9.70;;;;;;;17.28;37.85;103782.28;5053883;28;20487;-68
2022/01/14 00:54:34;;;;;;;13.93;9.90;;;;;;;17.36;37.58;103787.22;5053692;28;20039;-69
2022/01/14 00:59:29;;;;;;;12.57;10.20;;;;;;;17.31;37.83;103775.38;5054037;28;20062;-68
2022/01/14 01:01:59;;;;;;;14.18;9.30;;;;;;;17.31;37.84;103773.44;5053638;28;20071;-69
2022/01/14 01:04:33;;;;;;;12.80;9.88;;;;;;;17.31;37.85;103772.63;5053690;28;20439;-70
2022/01/14 01:07:01;;;;;;;13.70;8.50;;;;;;;17.32;37.79;103763.22;5053600;28;20033;-70
2022/01/14 01:09:29;;;;;;;14.18;10.63;;;;;;;17.30;37.87;103770.94;5053525;28;20111;-70
2022/01/14 01:12:10;;;;;;;12.98;9.50;;;;;;;17.28;37.96;103781.47;5053454;28;20082;-70
2022/01/14 01:14:51;;;;;;;12.15;8.68;;;;;;;17.29;37.73;103774.81;5053621;28;20060;-69
2022/01/14 01:17:17;;;;;;;12.30;9.43;;;;;;;17.27;37.94;103777.06;5053408;28;20463;-75
2022/01/14 01:19:44;;;;;;;11.88;8.73;;;;;;;17.25;37.88;103774.59;5053227;28;20056;-69
2022/01/14 01:22:10;;;;;;;15.00;8.70;;;;;;;17.26;37.65;103776.22;5053369;28;20071;-69
2022/01/14 01:24:36;;;;;;;19.30;9.73;;;;;;;17.29;37.66;103769.31;5053023;28;20060;-70
2022/01/14 01:27:06;;;;;;;13.02;9.25;;;;;;;17.23;37.92;103775.97;5053276;28;20395;-70
2022/01/14 01:32:00;;;;;;;12.93;7.60;;;;;;;17.24;37.68;103763.81;5053112;28;20033;-70
2022/01/14 01:34:26;;;;;;;11.88;7.45;;;;;;;17.20;37.57;103758.03;5053264;28;20032;-75
2022/01/14 01:36:56;;;;;;;13.45;7.90;;;;;;;17.19;38.02;103759.97;5053093;28;20383;-70
2022/01/14 01:39:30;;;;;;;11.68;7.35;;;;;;;17.22;37.69;103755.78;5053017;28;20075;-70
2022/01/14 01:42:00;;;;;;;10.50;7.22;;;;;;;17.16;37.56;103755.03;5053008;28;20036;-69
2022/01/14 01:44:27;;;;;;;11.63;6.63;;;;;;;17.15;37.55;103758.03;5052944;28;20383;-69
2022/01/14 01:46:54;;;;;;;9.88;6.22;;;;;;;17.12;37.60;103745.63;5034956;28;20056;-70
2022/01/14 01:49:25;;;;;;;9.35;6.18;;;;;;;17.19;37.49;103748.91;5052819;28;20040;-69
2022/01/14 01:51:52;;;;;;;9.68;6.28;;;;;;;17.22;37.49;103750.28;5053073;28;20104;-69
2022/01/14 01:54:19;;;;;;;13.18;5.90;;;;;;;17.20;37.69;103736.75;5052603;28;20021;-70
2022/01/14 01:56:45;;;;;;;10.02;7.00;;;;;;;17.17;37.58;103726.28;5052613;28;20471;-69
2022/01/14 01:59:11;;;;;;;13.35;7.43;;;;;;;17.22;37.24;103727.34;5052169;28;20025;-70
2022/01/14 02:01:41;;;;;;;12.65;7.18;;;;;;;17.20;37.40;103725.69;5051623;28;20025;-69
2022/01/14 02:04:07;;;;;;;10.25;6.30;;;;;;;17.11;37.60;103716.34;5052834;28;20021;-69
2022/01/14 02:06:34;;;;;;;9.38;6.53;;;;;;;17.16;37.58;103719.09;5052607;28;20110;-70
2022/01/14 02:08:59;;;;;;;13.68;6.85;;;;;;;17.18;37.36;103722.41;5052789;28;20021;-70
2022/01/14 02:11:26;;;;;;;11.15;6.45;;;;;;;17.08;37.46;103725.22;5052737;28;20541;-70
2022/01/14 02:13:54;;;;;;;12.77;7.38;;;;;;;17.04;37.51;103724.13;5052633;28;20029;-72
2022/01/14 02:16:33;;;;;;;10.57;6.75;;;;;;;16.94;37.43;103723.38;5052685;28;20382;-75
2022/01/14 02:24:34;;;;;;;12.20;7.43;;;;;;;16.98;37.24;103721.69;5052479;28;20138;-70
2022/01/14 02:27:00;;;;;;;9.30;7.30;;;;;;;16.63;37.58;103715.19;5052407;28;20040;-70
2022/01/14 02:29:27;;;;;;;12.90;7.05;;;;;;;16.83;37.23;103719.81;5052323;28;20049;-69
2022/01/14 02:31:53;;;;;;;13.45;6.63;;;;;;;16.89;37.28;103721.44;5052494;28;20052;-69
2022/01/14 02:34:19;;;;;;;9.20;6.40;;;;;;;16.82;37.37;103720.94;5034326;28;20491;-69
2022/01/14 02:36:47;;;;;;;10.65;7.90;;;;;;;16.86;37.13;103719.28;5052457;28;20104;-69
2022/01/14 02:39:15;;;;;;;11.48;7.30;;;;;;;16.94;36.98;103707.63;5052200;28;20025;-69
2022/01/14 02:41:42;;;;;;;10.32;7.30;;;;;;;16.90;36.94;103721.16;5052126;28;20026;-70
2022/01/14 02:44:19;;;;;;;10.13;6.47;;;;;;;16.94;37.14;103715.91;5052089;28;20083;-71
2022/01/14 02:46:54;;;;;;;8.32;6.68;;;;;;;16.95;36.94;103703.75;5052160;28;20057;-70
2022/01/14 02:49:30;;;;;;;10.63;6.82;;;;;;;16.95;37.06;103706.50;5052106;28;20036;-70
2022/01/14 02:51:56;;;;;;;10.20;7.32;;;;;;;17.08;36.81;103697.59;5052179;28;20044;-69
2022/01/14 02:54:31;;;;;;;13.10;7.32;;;;;;;17.10;36.70;103700.91;5051966;28;20028;-70
2022/01/14 02:56:58;;;;;;;8.13;6.82;;;;;;;17.11;36.75;103696.19;5052136;28;20107;-70
2022/01/14 02:59:26;;;;;;;10.48;7.03;;;;;;;17.03;36.99;103697.63;5051250;28;20394;-70
2022/01/14 03:01:52;;;;;;;11.77;6.97;;;;;;;16.98;36.96;103692.13;5048356;28;20502;-70
2022/01/14 03:04:21;;;;;;;11.27;6.80;;;;;;;16.98;37.06;103694.88;5051908;28;20082;-75
2022/01/14 03:06:48;;;;;;;10.48;7.30;;;;;;;16.95;37.10;103703.75;5053701;28;20036;-69
2022/01/14 03:09:14;;;;;;;13.00;6.85;;;;;;;16.74;37.21;103693.91;5055747;28;20426;-70
2022/01/14 03:11:45;;;;;;;10.95;7.82;;;;;;;16.87;37.29;103685.03;5055765;28;20033;-69
2022/01/14 03:14:14;;;;;;;11.77;7.43;;;;;;;16.94;36.78;103691.06;5055698;28;20039;-69
2022/01/14 03:16:42;;;;;;;10.48;7.65;;;;;;;16.99;36.84;103691.00;5055928;28;20029;-69
2022/01/14 03:19:16;;;;;;;9.77;6.70;;;;;;;16.88;37.15;103686.66;5055642;28;20017;-70
2022/01/14 03:21:43;;;;;;;8.38;6.60;;;;;;;16.75;37.36;103687.28;5055651;28;20055;-70
2022/01/14 03:24:23;;;;;;;9.45;6.70;;;;;;;16.64;37.42;103681.78;5055839;28;20024;-70
2022/01/14 03:26:51;;;;;;;17.65;6.85;;;;;;;16.81;37.05;103677.88;5055424;28;20068;-69
2022/01/14 03:29:18;;;;;;;11.85;8.98;;;;;;;16.80;37.12;103667.94;5055745;28;20104;-70
2022/01/14 03:31:45;;;;;;;15.00;8.68;;;;;;;16.82;37.12;103660.19;5055616;28;20484;-69
2022/01/14 03:34:11;;;;;;;11.15;7.97;;;;;;;16.81;37.17;103658.53;5055497;28;20501;-70
2022/01/14 03:36:37;;;;;;;9.90;8.35;;;;;;;16.87;37.04;103646.34;5055608;28;20055;-69
2022/01/14 03:39:03;;;;;;;12.15;7.18;;;;;;;16.92;36.94;103640.78;5055320;28;20526;-69
2022/01/14 03:41:29;;;;;;;13.10;8.50;;;;;;;16.88;37.31;103646.06;5055214;28;20100;-69
2022/01/14 03:43:55;;;;;;;12.77;9.13;;;;;;;16.83;37.33;103643.31;5055168;28;20052;-70
2022/01/14 03:46:20;;;;;;;10.93;8.43;;;;;;;16.96;36.99;103639.09;5037307;28;20448;-70
2022/01/14 03:48:46;;;;;;;12.98;8.88;;;;;;;16.99;36.92;103637.69;5055354;28;20025;-69
2022/01/14 03:51:12;;;;;;;15.07;8.93;;;;;;;16.98;37.17;103639.63;5055038;28;20035;-69
2022/01/14 03:53:39;;;;;;;9.75;8.10;;;;;;;16.97;37.11;103624.19;5037255;28;20029;-69
2022/01/14 03:56:05;;;;;;;10.70;8.65;;;;;;;16.84;37.14;103624.81;5054926;28;20551;-70
2022/01/14 03:58:30;;;;;;;12.35;8.50;;;;;;;16.82;37.26;103625.09;5054897;28;20103;-69
2022/01/14 04:00:56;;;;;;;11.43;9.13;;;;;;;16.88;37.16;103628.66;5054798;28;20056;-71
2022/01/14 04:03:21;;;;;;;13.55;9.73;;;;;;;16.91;37.33;103625.31;5054885;28;20434;-73
2022/01/14 04:05:47;;;;;;;10.90;9.73;;;;;;;16.89;37.37;103638.59;5054768;28;20021;-69
2022/01/14 04:08:12;;;;;;;13.60;10.70;;;;;;;16.85;37.42;103638.34;5054671;28;20025;-69
2022/01/14 04:10:39;;;;;;;13.65;9.95;;;;;;;16.84;37.52;103639.44;5054510;28;20028;-69
2022/01/14 04:13:13;;;;;;;13.82;10.10;;;;;;;16.96;37.37;103621.72;5053245;28;20021;-69
2022/01/14 04:15:41;;;;;;;13.35;8.98;;;;;;;16.92;37.47;103618.69;5054915;28;20446;-69
2022/01/14 04:18:15;;;;;;;10.48;8.20;;;;;;;16.88;37.55;103614.84;5054633;28;20410;-70
2022/01/14 04:20:42;;;;;;;11.07;7.97;;;;;;;16.90;37.45;103618.16;5054547;28;20468;-70
2022/01/14 04:23:11;;;;;;;13.20;8.45;;;;;;;16.89;37.42;103611.81;5036596;28;20021;-70
2022/01/14 04:25:38;;;;;;;12.68;9.10;;;;;;;16.91;37.33;103612.34;5054229;28;20045;-70
2022/01/14 04:28:04;;;;;;;10.55;9.45;;;;;;;16.85;37.60;103604.38;5054370;28;20087;-69
2022/01/14 04:30:30;;;;;;;11.70;9.00;;;;;;;16.89;37.43;103605.47;5054583;28;20063;-69
2022/01/14 04:32:57;;;;;;;13.48;9.85;;;;;;;16.87;37.50;103603.00;5054210;28;20068;-69
2022/01/14 04:35:24;;;;;;;14.02;9.07;;;;;;;16.90;37.62;103602.41;5054115;28;20068;-69
2022/01/14 04:37:49;;;;;;;12.50;8.18;;;;;;;16.87;37.44;103597.47;5054227;28;20021;-70
2022/01/14 04:40:15;;;;;;;9.10;7.82;;;;;;;16.88;37.65;103609.34;5054181;28;20031;-73
2022/01/14 04:42:42;;;;;;;13.65;7.80;;;;;;;16.85;37.63;103609.88;5054007;28;20021;-69
2022/01/14 04:45:25;;;;;;;15.05;7.43;;;;;;;16.81;37.63;103608.81;5054023;28;20025;-69
2022/01/14 04:47:50;;;;;;;10.75;7.95;;;;;;;16.91;37.60;103603.22;5054038;28;20099;-69
2022/01/14 04:50:21;;;;;;;11.63;7.95;;;;;;;16.88;37.31;103598.28;5053921;28;20100;-70
2022/01/14 04:52:47;;;;;;;12.07;8.23;;;;;;;16.85;37.46;103593.31;5053935;28;20475;-70
2022/01/14 04:55:16;;;;;;;10.80;8.23;;;;;;;16.80;37.79;103594.19;5053783;28;20047;-69
2022/01/14 04:57:42;;;;;;;9.15;7.90;;;;;;;16.84;37.58;103586.97;5053796;28;20028;-70
2022/01/14 05:00:11;;;;;;;11.80;8.70;;;;;;;16.83;37.61;103587.28;5053724;28;20025;-69
2022/01/14 05:02:37;;;;;;;13.23;8.68;;;;;;;16.78;37.78;103579.88;5053608;28;20039;-69
2022/01/14 05:05:07;;;;;;;12.80;8.55;;;;;;;16.77;37.79;103569.06;5053656;28;20036;-75
2022/01/14 05:07:33;;;;;;;12.80;8.57;;;;;;;16.79;37.61;103573.22;5053735;28;20064;-70
2022/01/14 05:12:28;;;;;;;11.10;8.23;;;;;;;16.81;37.38;103567.41;5053518;28;20086;-69
2022/01/14 05:14:53;;;;;;;12.43;7.85;;;;;;;16.76;37.58;103567.44;5053304;28;20438;-69
2022/01/14 05:17:19;;;;;;;13.80;8.07;;;;;;;16.69;37.96;103566.91;5053301;28;20103;-69
2022/01/14 05:19:45;;;;;;;14.77;9.13;;;;;;;16.68;37.95;103566.06;5053340;28;20102;-69
2022/01/14 05:22:11;;;;;;;11.38;8.63;;;;;;;16.67;37.87;103555.31;5053581;28;20100;-70
2022/01/14 05:24:36;;;;;;;10.40;8.18;;;;;;;16.74;37.88;103553.09;5053631;28;20523;-69
2022/01/14 05:27:02;;;;;;;10.20;7.70;;;;;;;16.71;37.66;103553.69;5053078;28;20384;-69
2022/01/14 05:29:28;;;;;;;11.45;8.32;;;;;;;16.68;37.68;103551.44;5052504;28;20040;-69
2022/01/14 05:32:02;;;;;;;12.15;7.80;;;;;;;16.68;37.65;103551.44;5035642;28;20032;-69
2022/01/14 05:34:28;;;;;;;14.73;9.10;;;;;;;16.70;37.78;103543.72;5052960;28;20392;-70
2022/01/14 05:36:53;;;;;;;9.25;7.68;;;;;;;16.68;37.68;103532.94;5053055;28;20029;-70
2022/01/14 05:39:20;;;;;;;15.57;9.57;;;;;;;16.70;37.67;103535.44;5053294;28;20505;-69
2022/01/14 05:41:46;;;;;;;12.20;8.80;;;;;;;16.73;37.63;103535.72;5053206;28;20366;-69
2022/01/14 05:44:12;;;;;;;14.88;8.38;;;;;;;16.76;37.58;103531.53;5053184;28;20029;-69
2022/01/14 05:46:38;;;;;;;12.98;8.75;;;;;;;16.72;37.76;103523.03;5052872;28;20021;-70
2022/01/14 05:49:04;;;;;;;13.95;8.95;;;;;;;16.74;37.60;103525.50;5052912;28;20107;-70
2022/01/14 05:51:29;;;;;;;12.20;8.45;;;;;;;16.76;37.71;103528.78;5052762;28;20387;-74
2022/01/14 05:53:55;;;;;;;15.73;10.48;;;;;;;16.61;37.83;103530.50;5052902;28;20078;-69
2022/01/14 05:56:21;;;;;;;16.23;9.30;;;;;;;16.64;37.72;103527.19;5052986;28;20487;-69
2022/01/14 05:58:47;;;;;;;13.68;8.80;;;;;;;16.63;38.00;103530.25;5052713;28;20025;-69
2022/01/14 06:01:13;;;;;;;12.65;9.63;;;;;;;16.60;37.97;103534.38;5052690;28;20499;-70
2022/01/14 06:03:38;;;;;;;18.08;10.57;;;;;;;16.55;37.96;103531.66;5052641;28;20530;-70
2022/01/14 06:06:04;;;;;;;13.68;8.02;;;;;;;16.59;37.92;103529.97;5052610;28;20490;-69
2022/01/14 06:08:29;;;;;;;11.05;7.93;;;;;;;16.55;38.00;103528.06;5052809;28;20028;-70
2022/01/14 06:10:55;;;;;;;11.20;8.77;;;;;;;16.53;37.95;103533.88;5052580;28;20029;-69
2022/01/14 06:13:21;;;;;;;10.60;8.25;;;;;;;16.60;37.90;103525.28;5052428;28;20020;-69
2022/01/14 06:15:46;;;;;;;12.98;8.85;;;;;;;16.53;38.03;103533.88;5018372;28;20021;-70
2022/01/14 06:18:12;;;;;;;12.38;8.55;;;;;;;16.52;38.10;103532.22;5052564;28;20021;-69
2022/01/14 06:20:37;;;;;;;14.20;8.32;;;;;;;16.47;38.24;103532.25;5052381;28;20036;-69
2022/01/14 06:23:03;;;;;;;14.20;7.57;;;;;;;16.49;38.16;103529.22;5052404;28;20123;-70
2022/01/14 06:25:28;;;;;;;11.30;7.32;;;;;;;16.53;38.24;103520.06;5052092;28;20053;-70
2022/01/14 06:27:54;;;;;;;12.13;7.93;;;;;;;16.46;38.17;103518.75;5052305;28;20021;-70
2022/01/14 06:30:19;;;;;;;11.80;8.13;;;;;;;16.43;38.34;103525.66;5052270;28;20025;-72
2022/01/14 06:32:45;;;;;;;8.55;6.10;;;;;;;16.45;38.12;103520.69;5052326;28;20021;-69
2022/01/14 06:35:13;;;;;;;10.15;6.57;;;;;;;16.38;38.32;103523.75;5052124;28;20029;-70
2022/01/14 06:37:39;;;;;;;10.50;7.28;;;;;;;16.46;38.11;103524.25;5034348;28;20021;-70
2022/01/14 06:40:06;;;;;;;8.02;6.50;;;;;;;16.38;38.34;103528.44;5052254;28;20100;-69
2022/01/14 06:42:32;;;;;;;9.95;7.00;;;;;;;16.35;38.39;103524.34;5055264;28;20028;-71
2022/01/14 06:44:58;;;;;;;10.65;6.78;;;;;;;16.35;38.44;103523.50;5056251;28;20111;-71
2022/01/14 06:47:24;;;;;;;13.65;7.50;;;;;;;16.35;38.34;103526.28;5056243;28;20109;-70
2022/01/14 06:49:50;;;;;;;11.45;7.07;;;;;;;16.44;38.56;103524.56;5056259;28;20025;-69
2022/01/14 06:52:15;;;;;;;12.25;7.70;;;;;;;16.40;38.41;103534.53;5056439;28;20044;-69
2022/01/14 06:54:41;;;;;;;15.25;7.65;;;;;;;16.29;38.50;103535.69;5056071;28;20514;-70
2022/01/14 06:57:07;;;;;;;11.40;7.70;;;;;;;16.34;38.49;103538.41;5056352;28;20021;-71
2022/01/14 06:59:32;;;;;;;11.93;8.38;;;;;;;16.38;38.37;103539.47;5055917;28;20029;-70
2022/01/14 07:01:59;;;;;;;13.13;8.82;;;;;;;16.32;38.47;103535.94;5055578;28;20033;-69
2022/01/14 07:04:25;;;;;;;13.10;9.98;;;;;;;16.29;38.63;103536.50;5055782;28;20017;-69
2022/01/14 07:06:50;;;;;;;11.00;8.88;;;;;;;16.34;38.52;103541.19;5037696;28;20044;-77
2022/01/14 07:09:16;;;;;;;14.63;9.75;;;;;;;16.31;38.38;103533.44;5055943;28;20471;-69
2022/01/14 07:11:46;;;;;;;13.57;9.63;;;;;;;16.29;38.33;103532.91;5055856;28;20483;-77
2022/01/14 07:14:12;;;;;;;11.55;8.50;;;;;;;16.29;38.42;103527.41;5055038;28;20059;-69
2022/01/14 07:16:38;;;;;;;14.10;9.88;;;;;;;16.29;38.40;103532.91;5056025;28;20403;-69
2022/01/14 07:19:03;;;;;;;12.85;9.90;;;;;;;16.15;38.54;103540.16;5055252;28;20036;-69
2022/01/14 07:21:29;;;;;;;14.50;9.13;;;;;;;16.22;38.33;103546.19;5055967;28;20108;-90
2022/01/14 07:23:55;;;;;;;12.95;9.38;;;;;;;16.31;38.28;103541.72;5037397;28;20040;-70
2022/01/14 07:26:21;;;;;;;14.98;9.20;;;;;;;16.28;38.43;103547.81;5054555;28;20127;-70
2022/01/14 07:28:47;;;;;;;10.82;9.02;;;;;;;16.42;37.96;103539.75;5055503;28;20040;-69
2022/01/14 07:31:12;;;;;;;12.82;9.15;;;;;;;16.31;38.32;103544.50;5055656;28;20033;-68
2022/01/14 07:33:38;;;;;;;15.23;9.48;;;;;;;16.04;38.76;103540.22;5055316;28;20025;-70
2022/01/14 07:36:04;;;;;;;15.25;9.05;;;;;;;16.22;38.19;103541.50;5050649;28;20055;-74
2022/01/14 07:38:29;;;;;;;17.90;9.63;;;;;;;16.22;38.20;103540.69;5052071;28;20033;-70
2022/01/14 07:40:55;;;;;;;15.50;9.32;;;;;;;16.22;38.23;103552.53;5055243;28;20061;-70
2022/01/14 07:43:21;;;;;;;14.80;9.82;;;;;;;16.23;38.09;103543.16;5055096;28;20083;-69
2022/01/14 07:45:48;;;;;;;12.07;9.02;;;;;;;16.26;38.25;103542.59;5055289;28;20028;-76
2022/01/14 07:48:14;;;;;;;16.30;10.20;;;;;;;16.21;38.17;103545.38;5054392;28;20100;-69
2022/01/14 07:50:40;;;;;;;17.88;9.85;;;;;;;16.08;38.47;103546.81;5053518;28;20570;-75
2022/01/14 07:53:06;;;;;;;12.30;9.63;;;;;;;16.23;38.12;103539.56;5054317;28;20108;-80
2022/01/14 07:55:31;;;;;;;12.85;9.60;;;;;;;16.29;38.01;103539.25;5037147;28;20490;-70
2022/01/14 07:57:57;;;;;;;14.60;9.50;;;;;;;16.20;38.18;103548.41;5054909;28;20490;-68
2022/01/14 08:00:23;;;;;;;13.90;9.68;;;;;;;16.16;38.28;103563.88;5047846;28;20066;-70
2022/01/14 08:02:49;;;;;;;15.02;9.27;;;;;;;16.29;37.66;103569.59;5038743;28;20033;-70
2022/01/14 08:05:16;;;;;;;14.95;9.57;;;;;;;16.35;37.95;103568.47;5038424;28;20044;-70
2022/01/14 08:07:47;;;;;;;16.50;10.23;;;;;;;16.25;38.10;103562.19;5038440;28;20613;-70
2022/01/14 08:10:13;;;;;;;12.68;9.70;;;;;;;16.32;38.04;103570.97;5037563;28;20028;-70
2022/01/14 08:12:40;;;;;;;12.40;9.27;;;;;;;16.33;37.91;103561.59;5037790;28;20029;-75
2022/01/14 08:15:11;;;;;;;13.10;9.35;;;;;;;16.21;38.14;103561.09;5025282;28;20043;-71
2022/01/14 08:17:37;;;;;;;13.80;10.13;;;;;;;16.24;37.84;103560.53;5037684;28;20028;-70
2022/01/14 08:20:04;;;;;;;13.48;9.95;;;;;;;16.28;38.07;103551.41;5038331;28;20037;-69
2022/01/14 08:22:31;;;;;;;14.38;10.15;;;;;;;16.30;37.84;103545.59;5038274;28;20039;-70
2022/01/14 08:24:57;;;;;;;13.82;8.82;;;;;;;16.18;38.04;103553.41;5038326;28;20798;-70
2022/01/14 08:27:23;;;;;;;14.45;10.27;;;;;;;16.18;38.18;103568.03;5038199;28;20039;-70
2022/01/14 08:29:50;;;;;;;13.70;9.98;;;;;;;16.07;38.33;103566.41;5037732;28;20025;-70
2022/01/14 08:32:16;;;;;;;14.55;9.52;;;;;;;16.13;38.43;103564.44;5037610;28;20162;-70
2022/01/14 08:34:41;;;;;;;15.18;10.15;;;;;;;16.07;38.31;103564.47;5038256;28;20119;-70
2022/01/14 08:37:07;;;;;;;11.85;9.93;;;;;;;16.17;38.37;103571.03;5019623;28;20029;-70
2022/01/14 08:39:33;;;;;;;13.07;11.13;;;;;;;16.09;38.51;103567.75;5045643;28;20032;-70
2022/01/14 08:41:59;;;;;;;15.65;9.13;;;;;;;16.07;38.46;103569.97;5019450;28;20029;-71
2022/01/14 08:44:26;;;;;;;17.27;9.80;;;;;;;16.04;38.64;103565.03;5038344;28;20033;-76
2022/01/14 08:46:52;;;;;;;12.65;10.02;;;;;;;15.92;38.62;103572.78;5042521;28;20021;-69
2022/01/14 08:49:18;;;;;;;14.65;9.05;;;;;;;16.06;38.33;103570.25;5053084;28;20017;-69
2022/01/14 08:51:44;;;;;;;15.75;10.90;;;;;;;15.98;38.74;103563.41;5053740;28;20033;-77
2022/01/14 08:54:10;;;;;;;21.83;12.05;;;;;;;16.11;38.29;103558.41;5053620;28;20029;-80
2022/01/14 08:56:36;;;;;;;15.73;11.60;;;;;;;16.04;38.64;103556.75;5053775;28;20021;-69
2022/01/14 08:59:02;;;;;;;15.23;11.10;;;;;;;16.15;38.36;103556.72;5053975;28;20025;-69
2022/01/14 09:01:28;;;;;;;16.63;11.32;;;;;;;16.02;38.55;103561.75;5053640;28;20056;-69
2022/01/14 09:03:54;;;;;;;14.40;11.00;;;;;;;15.98;38.49;103563.41;5052753;28;20033;-73
2022/01/14 09:06:19;;;;;;;14.60;10.75;;;;;;;15.97;38.63;103552.66;5053616;28;20438;-69
2022/01/14 09:08:45;;;;;;;15.00;11.02;;;;;;;16.06;38.74;103562.81;5053553;28;20103;-68
2022/01/14 09:11:10;;;;;;;17.10;10.48;;;;;;;16.04;38.51;103564.22;5053576;28;20033;-69
2022/01/14 09:13:36;;;;;;;18.50;11.88;;;;;;;15.92;38.75;103564.50;5053665;28;20031;-69
2022/01/14 09:16:02;;;;;;;17.23;12.20;;;;;;;15.96;38.41;103564.78;5045806;28;20467;-73
2022/01/14 09:18:28;;;;;;;17.58;13.15;;;;;;;15.89;37.98;103567.03;5036733;28;20072;-69
2022/01/14 09:20:56;;;;;;;20.60;12.80;;;;;;;15.92;38.18;103558.19;5040503;28;20021;-71
2022/01/14 09:23:25;;;;;;;17.33;13.23;;;;;;;16.17;37.64;103565.53;5036686;28;20024;-74
2022/01/14 09:25:51;;;;;;;20.95;12.80;;;;;;;16.10;37.77;103560.34;5036239;28;20110;-70
2022/01/14 09:28:17;;;;;;;16.83;11.63;;;;;;;16.12;37.73;103571.06;5037443;28;20116;-69
2022/01/14 09:30:43;;;;;;;20.95;12.20;;;;;;;16.24;37.63;103574.31;5040520;28;20112;-79
2022/01/14 09:33:08;;;;;;;14.95;11.85;;;;;;;16.18;37.86;103572.72;5037093;28;20025;-70
2022/01/14 09:35:34;;;;;;;16.85;11.82;;;;;;;16.25;37.49;103571.31;5051106;28;20120;-69
2022/01/14 09:38:00;;;;;;;16.27;11.63;;;;;;;16.33;37.42;103583.69;5052920;28;20033;-69
2022/01/14 09:40:27;;;;;;;16.13;11.52;;;;;;;16.14;37.72;103585.41;5052764;28;20075;-72
2022/01/14 09:43:00;;;;;;;15.43;11.30;;;;;;;16.28;37.32;103586.44;5053127;28;20072;-69
2022/01/14 09:45:26;;;;;;;15.13;12.15;;;;;;;16.23;37.58;103579.00;5052793;28;20064;-69
2022/01/14 09:47:52;;;;;;;14.05;11.32;;;;;;;16.32;37.45;103574.56;5053079;28;20033;-80
2022/01/14 09:50:19;;;;;;;18.20;11.88;;;;;;;16.25;37.38;103576.00;5052877;28;20498;-70
2022/01/14 09:52:50;;;;;;;15.90;11.13;;;;;;;16.34;37.28;103582.56;5052203;28;20060;-71
2022/01/14 09:55:16;;;;;;;19.58;13.23;;;;;;;16.36;37.19;103586.69;5051787;28;20037;-76
2022/01/14 09:57:42;;;;;;;14.38;11.43;;;;;;;16.36;37.27;103575.66;5052898;28;20031;-72
2022/01/14 10:00:08;;;;;;;17.88;12.43;;;;;;;16.39;37.45;103568.72;5051995;28;20512;-74
2022/01/14 10:02:37;;;;;;;17.42;11.35;;;;;;;16.45;37.25;103562.06;5033792;28;20032;-80
2022/01/14 10:05:04;;;;;;;16.35;12.25;;;;;;;16.51;37.21;103560.94;5052834;28;20047;-68
2022/01/14 10:07:32;;;;;;;17.83;12.95;;;;;;;16.55;37.17;103556.50;5052350;28;20032;-81
2022/01/14 10:09:59;;;;;;;17.55;12.63;;;;;;;16.46;37.23;103544.41;5052590;28;20029;-80
2022/01/14 10:12:30;;;;;;;23.85;12.35;;;;;;;16.52;37.02;103550.72;5052671;28;20029;-80
2022/01/14 10:15:02;;;;;;;20.15;13.05;;;;;;;16.50;37.13;103541.91;5052112;28;20116;-80
2022/01/14 10:17:45;;;;;;;17.10;12.52;;;;;;;16.55;37.23;103534.44;5052460;28;20078;-80
2022/01/14 10:20:13;;;;;;;17.45;12.52;;;;;;;16.49;37.20;103535.56;5034543;28;20025;-78
2022/01/14 10:22:42;;;;;;;22.30;13.45;;;;;;;16.60;37.18;103526.09;5051612;28;20464;-80
2022/01/14 10:25:10;;;;;;;15.73;12.60;;;;;;;16.71;37.04;103528.84;5051527;28;20480;-72
2022/01/14 10:27:36;;;;;;;17.10;12.70;;;;;;;16.62;37.07;103534.94;5052079;28;20160;-70
2022/01/14 10:30:11;;;;;;;17.25;13.15;;;;;;;16.36;37.53;103528.75;5052327;28;20537;-76
2022/01/14 10:32:38;;;;;;;18.65;13.27;;;;;;;16.59;37.25;103529.16;5052449;28;20025;-69
2022/01/14 10:35:09;;;;;;;20.38;12.50;;;;;;;16.72;36.91;103539.59;5051719;28;20033;-74
2022/01/14 10:37:35;;;;;;;18.58;12.05;;;;;;;16.80;36.81;103529.88;5051787;28;20470;-70
2022/01/14 10:40:05;;;;;;;19.17;11.68;;;;;;;16.74;37.09;103525.50;5051835;28;20112;-78
2022/01/14 10:42:34;;;;;;;16.98;9.32;;;;;;;16.76;36.81;103526.84;5049842;28;20543;-70
2022/01/14 10:45:21;;;;;;;14.50;9.20;;;;;;;16.86;36.97;103529.53;5051758;28;20021;-69
2022/01/14 10:47:55;;;;;;;15.20;8.95;;;;;;;16.94;36.85;103530.88;5051696;28;20423;-74
2022/01/14 10:50:33;;;;;;;14.82;8.13;;;;;;;16.91;36.68;103526.72;5051631;28;20036;-76
2022/01/14 10:53:00;;;;;;;18.80;8.32;;;;;;;16.94;36.62;103525.34;5050457;28;20116;-72
2022/01/14 10:55:35;;;;;;;16.52;7.50;;;;;;;17.01;36.41;103527.78;5051395;28;20037;-76
2022/01/14 10:58:03;;;;;;;15.98;8.63;;;;;;;17.04;36.47;103530.78;5052168;28;20025;-80
2022/01/14 11:00:36;;;;;;;15.02;8.95;;;;;;;17.14;36.29;103525.13;5051027;28;20380;-80
2022/01/14 11:03:02;;;;;;;13.55;7.88;;;;;;;17.13;36.41;103519.91;5052334;28;20041;-84
2022/01/14 11:05:28;;;;;;;18.52;8.88;;;;;;;17.20;36.38;103510.16;5051714;28;20537;-69
2022/01/14 11:07:54;;;;;;;12.95;8.38;;;;;;;17.24;36.45;103506.84;5051693;28;20029;-69
2022/01/14 11:10:24;;;;;;;13.20;8.18;;;;;;;17.46;36.05;103509.94;5051865;28;20503;-69
2022/01/14 11:12:50;;;;;;;;;;;;;;;17.34;36.17;103503.97;5035851;28;20021;-70
2022/01/14 11:15:17;;;;;;;10.82;7.63;;;;;;;17.45;36.06;103499.97;5035407;28;19928;-71
2022/01/14 11:17:46;;;;;;;14.25;9.00;;;;;;;17.48;35.97;103500.22;5042926;28;20037;-80
2022/01/14 11:20:13;;;;;;;17.15;8.90;;;;;;;17.41;35.89;103496.97;5037175;28;20494;-74
2022/01/14 11:25:23;;;;;;;13.15;8.90;;;;;;;17.25;35.76;103489.16;5049350;28;20040;-71
2022/01/14 11:27:57;;;;;;;18.60;7.45;;;;;;;17.03;36.08;103492.41;5051777;28;20376;-78
2022/01/14 11:30:40;;;;;;;17.30;8.45;;;;;;;16.55;36.67;103495.78;5052882;28;20021;-75
2022/01/14 11:33:07;;;;;;;18.90;9.68;;;;;;;16.79;36.40;103489.56;5053597;28;20025;-76
2022/01/14 11:35:35;;;;;;;11.20;9.25;;;;;;;16.91;36.39;103481.72;5055030;28;20037;-78
2022/01/14 11:38:01;;;;;;;15.32;9.98;;;;;;;17.08;36.26;103481.31;5035481;28;20021;-75
2022/01/14 11:40:46;;;;;;;15.85;10.75;;;;;;;17.18;35.98;103482.00;5035305;28;20130;-80